sensor_id;sensor_type;location;lat;lon;timestamp;temperature;humidity
12413;DHT22;13877;18.896;-99.222;2023-07-31T00:00:48;26.90;77.30
12413;DHT22;13877;18.896;-99.222;2023-07-31T00:03:15;26.80;76.60
12413;DHT22;13877;18.896;-99.222;2023-07-31T00:05:41;27.00;79.80
12413;DHT22;13877;18.896;-99.222;2023-07-31T00:08:07;26.80;77.80
12413;DHT22;13877;18.896;-99.222;2023-07-31T00:10:34;26.70;78.00
12413;DHT22;13877;18.896;-99.222;2023-07-31T00:13:00;26.60;78.80
12413;DHT22;13877;18.896;-99.222;2023-07-31T00:15:26;26.40;84.00
12413;DHT22;13877;18.896;-99.222;2023-07-31T00:17:53;26.30;86.50
12413;DHT22;13877;18.896;-99.222;2023-07-31T00:20:19;26.10;83.00
12413;DHT22;13877;18.896;-99.222;2023-07-31T00:22:46;26.00;80.60
12413;DHT22;13877;18.896;-99.222;2023-07-31T00:25:12;25.90;83.60
12413;DHT22;13877;18.896;-99.222;2023-07-31T00:27:39;25.90;82.80
12413;DHT22;13877;18.896;-99.222;2023-07-31T00:30:11;25.80;86.50
12413;DHT22;13877;18.896;-99.222;2023-07-31T00:32:37;25.70;91.70
12413;DHT22;13877;18.896;-99.222;2023-07-31T00:35:04;25.60;89.20
12413;DHT22;13877;18.896;-99.222;2023-07-31T00:37:30;25.50;83.70
12413;DHT22;13877;18.896;-99.222;2023-07-31T00:39:57;25.50;82.50
12413;DHT22;13877;18.896;-99.222;2023-07-31T00:42:24;25.40;85.70
12413;DHT22;13877;18.896;-99.222;2023-07-31T00:44:50;25.30;85.40
12413;DHT22;13877;18.896;-99.222;2023-07-31T00:47:17;25.20;85.80
12413;DHT22;13877;18.896;-99.222;2023-07-31T00:49:43;25.10;88.10
12413;DHT22;13877;18.896;-99.222;2023-07-31T00:52:10;25.00;88.40
12413;DHT22;13877;18.896;-99.222;2023-07-31T00:54:36;24.90;90.50
12413;DHT22;13877;18.896;-99.222;2023-07-31T00:57:03;24.80;90.90
12413;DHT22;13877;18.896;-99.222;2023-07-31T00:59:30;24.80;90.20
12413;DHT22;13877;18.896;-99.222;2023-07-31T01:01:56;24.80;90.20
12413;DHT22;13877;18.896;-99.222;2023-07-31T01:04:23;24.80;87.30
12413;DHT22;13877;18.896;-99.222;2023-07-31T01:07:06;24.70;89.70
12413;DHT22;13877;18.896;-99.222;2023-07-31T01:09:38;24.70;89.10
12413;DHT22;13877;18.896;-99.222;2023-07-31T01:12:06;24.60;90.10
12413;DHT22;13877;18.896;-99.222;2023-07-31T01:14:33;24.60;89.00
12413;DHT22;13877;18.896;-99.222;2023-07-31T01:17:00;24.30;91.90
12413;DHT22;13877;18.896;-99.222;2023-07-31T01:19:26;23.90;94.70
12413;DHT22;13877;18.896;-99.222;2023-07-31T01:26:55;22.20;99.90
12413;DHT22;13877;18.896;-99.222;2023-07-31T01:29:29;21.70;99.90
12413;DHT22;13877;18.896;-99.222;2023-07-31T01:31:59;21.40;99.90
12413;DHT22;13877;18.896;-99.222;2023-07-31T01:34:27;21.50;99.90
12413;DHT22;13877;18.896;-99.222;2023-07-31T01:36:55;21.70;99.90
12413;DHT22;13877;18.896;-99.222;2023-07-31T01:39:22;21.90;99.90
12413;DHT22;13877;18.896;-99.222;2023-07-31T01:41:49;22.10;99.90
12413;DHT22;13877;18.896;-99.222;2023-07-31T01:44:15;22.40;99.90
12413;DHT22;13877;18.896;-99.222;2023-07-31T01:46:42;22.70;99.90
12413;DHT22;13877;18.896;-99.222;2023-07-31T01:49:08;22.90;99.90
12413;DHT22;13877;18.896;-99.222;2023-07-31T01:51:35;23.00;99.90
12413;DHT22;13877;18.896;-99.222;2023-07-31T01:54:01;23.00;99.90
12413;DHT22;13877;18.896;-99.222;2023-07-31T01:56:28;23.00;99.90
12413;DHT22;13877;18.896;-99.222;2023-07-31T01:58:55;23.00;99.90
12413;DHT22;13877;18.896;-99.222;2023-07-31T02:01:22;23.10;99.90
12413;DHT22;13877;18.896;-99.222;2023-07-31T02:03:48;23.20;99.90
12413;DHT22;13877;18.896;-99.222;2023-07-31T02:06:15;23.20;99.90
12413;DHT22;13877;18.896;-99.222;2023-07-31T02:08:41;23.20;99.90
12413;DHT22;13877;18.896;-99.222;2023-07-31T02:11:07;23.20;99.90
12413;DHT22;13877;18.896;-99.222;2023-07-31T02:13:34;23.20;99.90
12413;DHT22;13877;18.896;-99.222;2023-07-31T02:16:00;23.20;99.90
12413;DHT22;13877;18.896;-99.222;2023-07-31T02:18:27;23.20;99.90
12413;DHT22;13877;18.896;-99.222;2023-07-31T02:20:53;23.20;99.90
12413;DHT22;13877;18.896;-99.222;2023-07-31T02:23:20;23.20;99.90
12413;DHT22;13877;18.896;-99.222;2023-07-31T02:25:46;23.20;99.90
12413;DHT22;13877;18.896;-99.222;2023-07-31T02:28:13;23.20;99.90
12413;DHT22;13877;18.896;-99.222;2023-07-31T02:30:43;23.20;99.90
12413;DHT22;13877;18.896;-99.222;2023-07-31T02:33:10;23.20;99.90
12413;DHT22;13877;18.896;-99.222;2023-07-31T02:35:36;23.30;98.80
12413;DHT22;13877;18.896;-99.222;2023-07-31T02:38:02;23.30;96.80
12413;DHT22;13877;18.896;-99.222;2023-07-31T02:40:29;23.40;94.10
12413;DHT22;13877;18.896;-99.222;2023-07-31T02:42:55;23.40;94.00
12413;DHT22;13877;18.896;-99.222;2023-07-31T02:45:22;23.30;94.10
12413;DHT22;13877;18.896;-99.222;2023-07-31T02:47:48;23.30;93.60
12413;DHT22;13877;18.896;-99.222;2023-07-31T02:50:14;23.00;98.50
12413;DHT22;13877;18.896;-99.222;2023-07-31T02:52:41;22.90;99.60
12413;DHT22;13877;18.896;-99.222;2023-07-31T02:55:07;22.70;99.90
12413;DHT22;13877;18.896;-99.222;2023-07-31T02:57:34;22.70;99.90
12413;DHT22;13877;18.896;-99.222;2023-07-31T03:00:00;22.60;99.90
12413;DHT22;13877;18.896;-99.222;2023-07-31T03:02:28;22.60;99.90
12413;DHT22;13877;18.896;-99.222;2023-07-31T03:04:54;22.60;99.90
12413;DHT22;13877;18.896;-99.222;2023-07-31T03:07:21;22.60;99.90
12413;DHT22;13877;18.896;-99.222;2023-07-31T03:09:48;22.50;99.90
12413;DHT22;13877;18.896;-99.222;2023-07-31T03:12:14;22.50;99.90
12413;DHT22;13877;18.896;-99.222;2023-07-31T03:14:41;22.40;99.90
12413;DHT22;13877;18.896;-99.222;2023-07-31T03:17:08;22.30;99.90
12413;DHT22;13877;18.896;-99.222;2023-07-31T03:19:34;22.20;99.90
12413;DHT22;13877;18.896;-99.222;2023-07-31T03:22:00;22.10;99.90
12413;DHT22;13877;18.896;-99.222;2023-07-31T03:24:28;21.80;99.90
12413;DHT22;13877;18.896;-99.222;2023-07-31T03:26:55;21.40;99.90
12413;DHT22;13877;18.896;-99.222;2023-07-31T03:29:22;21.30;99.90
12413;DHT22;13877;18.896;-99.222;2023-07-31T03:31:48;21.30;99.90
12413;DHT22;13877;18.896;-99.222;2023-07-31T03:34:15;21.40;99.90
12413;DHT22;13877;18.896;-99.222;2023-07-31T03:36:41;21.50;99.90
12413;DHT22;13877;18.896;-99.222;2023-07-31T03:39:09;21.50;99.90
12413;DHT22;13877;18.896;-99.222;2023-07-31T03:41:35;21.50;99.90
12413;DHT22;13877;18.896;-99.222;2023-07-31T03:44:02;21.40;99.90
12413;DHT22;13877;18.896;-99.222;2023-07-31T03:46:28;21.20;99.90
12413;DHT22;13877;18.896;-99.222;2023-07-31T03:48:55;21.20;99.90
12413;DHT22;13877;18.896;-99.222;2023-07-31T03:51:22;21.10;99.90
12413;DHT22;13877;18.896;-99.222;2023-07-31T03:53:49;21.10;99.90
12413;DHT22;13877;18.896;-99.222;2023-07-31T03:56:15;21.00;99.90
12413;DHT22;13877;18.896;-99.222;2023-07-31T03:58:42;21.00;99.90
12413;DHT22;13877;18.896;-99.222;2023-07-31T04:01:08;21.00;99.90
12413;DHT22;13877;18.896;-99.222;2023-07-31T04:03:35;21.00;99.90
12413;DHT22;13877;18.896;-99.222;2023-07-31T04:06:01;21.00;99.90
12413;DHT22;13877;18.896;-99.222;2023-07-31T04:08:28;21.00;99.90
12413;DHT22;13877;18.896;-99.222;2023-07-31T04:10:55;21.00;99.90
12413;DHT22;13877;18.896;-99.222;2023-07-31T04:13:22;21.00;99.90
12413;DHT22;13877;18.896;-99.222;2023-07-31T04:15:51;20.90;99.90
12413;DHT22;13877;18.896;-99.222;2023-07-31T04:18:18;20.90;99.90
12413;DHT22;13877;18.896;-99.222;2023-07-31T04:20:44;20.90;99.90
12413;DHT22;13877;18.896;-99.222;2023-07-31T04:23:11;20.90;99.90
12413;DHT22;13877;18.896;-99.222;2023-07-31T04:25:37;21.00;99.90
12413;DHT22;13877;18.896;-99.222;2023-07-31T04:28:04;21.00;99.90
12413;DHT22;13877;18.896;-99.222;2023-07-31T04:30:30;21.00;99.90
12413;DHT22;13877;18.896;-99.222;2023-07-31T04:32:57;21.00;99.90
12413;DHT22;13877;18.896;-99.222;2023-07-31T04:35:23;21.00;99.90
12413;DHT22;13877;18.896;-99.222;2023-07-31T04:37:50;21.00;99.90
12413;DHT22;13877;18.896;-99.222;2023-07-31T04:40:16;21.00;99.90
12413;DHT22;13877;18.896;-99.222;2023-07-31T04:42:43;21.00;99.90
12413;DHT22;13877;18.896;-99.222;2023-07-31T04:45:09;21.10;99.90
12413;DHT22;13877;18.896;-99.222;2023-07-31T04:47:36;21.10;99.90
12413;DHT22;13877;18.896;-99.222;2023-07-31T04:50:02;21.20;99.90
12413;DHT22;13877;18.896;-99.222;2023-07-31T04:52:30;21.20;99.90
12413;DHT22;13877;18.896;-99.222;2023-07-31T04:54:56;21.20;99.90
12413;DHT22;13877;18.896;-99.222;2023-07-31T04:57:23;21.20;99.90
12413;DHT22;13877;18.896;-99.222;2023-07-31T04:59:49;21.20;99.90
12413;DHT22;13877;18.896;-99.222;2023-07-31T05:02:16;21.20;99.90
12413;DHT22;13877;18.896;-99.222;2023-07-31T05:04:42;21.20;99.90
12413;DHT22;13877;18.896;-99.222;2023-07-31T05:07:09;21.10;99.90
12413;DHT22;13877;18.896;-99.222;2023-07-31T05:09:36;21.10;99.90
12413;DHT22;13877;18.896;-99.222;2023-07-31T05:12:04;21.10;99.90
12413;DHT22;13877;18.896;-99.222;2023-07-31T05:14:30;21.20;99.90
12413;DHT22;13877;18.896;-99.222;2023-07-31T05:16:57;21.20;99.90
12413;DHT22;13877;18.896;-99.222;2023-07-31T05:19:23;21.20;99.90
12413;DHT22;13877;18.896;-99.222;2023-07-31T05:21:50;21.30;99.90
12413;DHT22;13877;18.896;-99.222;2023-07-31T05:24:16;21.30;99.90
12413;DHT22;13877;18.896;-99.222;2023-07-31T05:26:43;21.30;99.90
12413;DHT22;13877;18.896;-99.222;2023-07-31T05:29:09;21.30;99.90
12413;DHT22;13877;18.896;-99.222;2023-07-31T05:31:35;21.30;99.90
12413;DHT22;13877;18.896;-99.222;2023-07-31T05:34:04;21.30;99.90
12413;DHT22;13877;18.896;-99.222;2023-07-31T05:36:30;21.40;99.90
12413;DHT22;13877;18.896;-99.222;2023-07-31T05:38:57;21.40;99.60
12413;DHT22;13877;18.896;-99.222;2023-07-31T05:41:23;21.70;97.10
12413;DHT22;13877;18.896;-99.222;2023-07-31T05:43:50;21.80;97.30
12413;DHT22;13877;18.896;-99.222;2023-07-31T05:46:17;21.80;99.40
12413;DHT22;13877;18.896;-99.222;2023-07-31T05:48:43;21.70;99.70
12413;DHT22;13877;18.896;-99.222;2023-07-31T05:51:10;21.60;99.30
12413;DHT22;13877;18.896;-99.222;2023-07-31T05:53:36;21.60;99.50
12413;DHT22;13877;18.896;-99.222;2023-07-31T05:56:06;21.40;99.90
12413;DHT22;13877;18.896;-99.222;2023-07-31T05:58:32;21.20;99.90
12413;DHT22;13877;18.896;-99.222;2023-07-31T06:00:59;21.00;99.90
12413;DHT22;13877;18.896;-99.222;2023-07-31T06:03:25;20.80;99.90
12413;DHT22;13877;18.896;-99.222;2023-07-31T06:05:52;20.70;99.90
12413;DHT22;13877;18.896;-99.222;2023-07-31T06:08:18;20.70;99.90
12413;DHT22;13877;18.896;-99.222;2023-07-31T06:10:44;20.70;99.90
12413;DHT22;13877;18.896;-99.222;2023-07-31T06:13:11;20.60;99.90
12413;DHT22;13877;18.896;-99.222;2023-07-31T06:15:37;20.70;99.90
12413;DHT22;13877;18.896;-99.222;2023-07-31T06:18:04;20.70;99.90
12413;DHT22;13877;18.896;-99.222;2023-07-31T06:20:36;20.60;99.90
12413;DHT22;13877;18.896;-99.222;2023-07-31T06:23:02;20.50;99.90
12413;DHT22;13877;18.896;-99.222;2023-07-31T06:25:29;20.50;99.90
12413;DHT22;13877;18.896;-99.222;2023-07-31T06:27:56;20.70;99.90
12413;DHT22;13877;18.896;-99.222;2023-07-31T06:30:22;20.90;99.90
12413;DHT22;13877;18.896;-99.222;2023-07-31T06:32:49;20.70;99.90
12413;DHT22;13877;18.896;-99.222;2023-07-31T06:35:15;20.60;99.90
12413;DHT22;13877;18.896;-99.222;2023-07-31T06:37:45;20.50;99.90
12413;DHT22;13877;18.896;-99.222;2023-07-31T06:40:11;20.60;99.90
12413;DHT22;13877;18.896;-99.222;2023-07-31T06:42:38;20.60;99.90
12413;DHT22;13877;18.896;-99.222;2023-07-31T06:45:04;20.60;99.90
12413;DHT22;13877;18.896;-99.222;2023-07-31T06:47:32;20.60;99.90
12413;DHT22;13877;18.896;-99.222;2023-07-31T06:49:58;20.40;99.90
12413;DHT22;13877;18.896;-99.222;2023-07-31T06:52:24;20.50;99.90
12413;DHT22;13877;18.896;-99.222;2023-07-31T06:55:01;20.40;99.90
12413;DHT22;13877;18.896;-99.222;2023-07-31T06:57:28;20.40;99.90
12413;DHT22;13877;18.896;-99.222;2023-07-31T06:59:55;20.40;99.90
12413;DHT22;13877;18.896;-99.222;2023-07-31T07:02:21;20.40;99.90
12413;DHT22;13877;18.896;-99.222;2023-07-31T07:04:48;20.50;99.90
12413;DHT22;13877;18.896;-99.222;2023-07-31T07:07:15;20.50;99.90
12413;DHT22;13877;18.896;-99.222;2023-07-31T07:09:41;20.40;99.90
12413;DHT22;13877;18.896;-99.222;2023-07-31T07:12:08;20.40;99.90
12413;DHT22;13877;18.896;-99.222;2023-07-31T07:14:34;20.40;99.90
12413;DHT22;13877;18.896;-99.222;2023-07-31T07:17:01;20.30;99.90
12413;DHT22;13877;18.896;-99.222;2023-07-31T07:19:27;20.30;99.90
12413;DHT22;13877;18.896;-99.222;2023-07-31T07:21:54;20.30;99.90
12413;DHT22;13877;18.896;-99.222;2023-07-31T07:24:20;20.30;99.90
12413;DHT22;13877;18.896;-99.222;2023-07-31T07:26:47;20.30;99.90
12413;DHT22;13877;18.896;-99.222;2023-07-31T07:29:13;20.30;99.90
12413;DHT22;13877;18.896;-99.222;2023-07-31T07:31:39;20.20;99.90
12413;DHT22;13877;18.896;-99.222;2023-07-31T07:34:06;20.20;99.90
12413;DHT22;13877;18.896;-99.222;2023-07-31T07:36:32;20.10;99.90
12413;DHT22;13877;18.896;-99.222;2023-07-31T07:38:59;20.00;99.90
12413;DHT22;13877;18.896;-99.222;2023-07-31T07:41:25;20.10;99.90
12413;DHT22;13877;18.896;-99.222;2023-07-31T07:43:52;20.20;99.90
12413;DHT22;13877;18.896;-99.222;2023-07-31T07:46:18;20.20;99.90
12413;DHT22;13877;18.896;-99.222;2023-07-31T07:48:44;20.20;99.90
12413;DHT22;13877;18.896;-99.222;2023-07-31T07:51:11;20.20;99.90
12413;DHT22;13877;18.896;-99.222;2023-07-31T07:53:37;20.20;99.90
12413;DHT22;13877;18.896;-99.222;2023-07-31T07:56:04;20.30;99.90
12413;DHT22;13877;18.896;-99.222;2023-07-31T07:58:30;20.20;99.90
12413;DHT22;13877;18.896;-99.222;2023-07-31T08:00:56;20.20;99.90
12413;DHT22;13877;18.896;-99.222;2023-07-31T08:03:23;20.20;99.90
12413;DHT22;13877;18.896;-99.222;2023-07-31T08:05:49;20.20;99.90
12413;DHT22;13877;18.896;-99.222;2023-07-31T08:08:18;20.20;99.90
12413;DHT22;13877;18.896;-99.222;2023-07-31T08:10:45;20.20;99.90
12413;DHT22;13877;18.896;-99.222;2023-07-31T08:13:12;20.10;99.90
12413;DHT22;13877;18.896;-99.222;2023-07-31T08:15:40;20.00;99.90
12413;DHT22;13877;18.896;-99.222;2023-07-31T08:18:07;19.90;99.90
12413;DHT22;13877;18.896;-99.222;2023-07-31T08:20:33;20.00;99.90
12413;DHT22;13877;18.896;-99.222;2023-07-31T08:22:59;19.90;99.90
12413;DHT22;13877;18.896;-99.222;2023-07-31T08:25:26;19.90;99.90
12413;DHT22;13877;18.896;-99.222;2023-07-31T08:27:52;19.90;99.90
12413;DHT22;13877;18.896;-99.222;2023-07-31T08:30:20;19.90;99.90
12413;DHT22;13877;18.896;-99.222;2023-07-31T08:32:46;20.00;99.90
12413;DHT22;13877;18.896;-99.222;2023-07-31T08:35:12;20.10;99.90
12413;DHT22;13877;18.896;-99.222;2023-07-31T08:37:39;20.00;99.90
12413;DHT22;13877;18.896;-99.222;2023-07-31T08:40:05;20.00;99.90
12413;DHT22;13877;18.896;-99.222;2023-07-31T08:42:32;20.00;99.90
12413;DHT22;13877;18.896;-99.222;2023-07-31T08:44:59;19.90;99.90
12413;DHT22;13877;18.896;-99.222;2023-07-31T08:47:26;19.90;99.90
12413;DHT22;13877;18.896;-99.222;2023-07-31T08:49:53;19.80;99.90
12413;DHT22;13877;18.896;-99.222;2023-07-31T08:52:20;19.80;99.90
12413;DHT22;13877;18.896;-99.222;2023-07-31T08:54:47;19.80;99.90
12413;DHT22;13877;18.896;-99.222;2023-07-31T08:57:13;19.90;99.90
12413;DHT22;13877;18.896;-99.222;2023-07-31T08:59:40;19.90;99.90
12413;DHT22;13877;18.896;-99.222;2023-07-31T09:02:08;19.90;99.90
12413;DHT22;13877;18.896;-99.222;2023-07-31T09:04:34;19.90;99.90
12413;DHT22;13877;18.896;-99.222;2023-07-31T09:07:02;20.00;99.90
12413;DHT22;13877;18.896;-99.222;2023-07-31T09:09:30;20.00;99.90
12413;DHT22;13877;18.896;-99.222;2023-07-31T09:11:57;19.90;99.90
12413;DHT22;13877;18.896;-99.222;2023-07-31T09:14:25;19.90;99.90
12413;DHT22;13877;18.896;-99.222;2023-07-31T09:16:54;19.80;99.90
12413;DHT22;13877;18.896;-99.222;2023-07-31T09:19:25;19.80;99.90
12413;DHT22;13877;18.896;-99.222;2023-07-31T09:21:52;19.90;99.90
12413;DHT22;13877;18.896;-99.222;2023-07-31T09:24:25;20.00;99.90
12413;DHT22;13877;18.896;-99.222;2023-07-31T09:26:53;20.00;99.90
12413;DHT22;13877;18.896;-99.222;2023-07-31T09:29:21;19.90;99.90
12413;DHT22;13877;18.896;-99.222;2023-07-31T09:31:48;19.90;99.90
12413;DHT22;13877;18.896;-99.222;2023-07-31T09:34:14;19.80;99.90
12413;DHT22;13877;18.896;-99.222;2023-07-31T09:36:41;19.90;99.90
12413;DHT22;13877;18.896;-99.222;2023-07-31T09:39:09;19.80;99.90
12413;DHT22;13877;18.896;-99.222;2023-07-31T09:41:38;19.70;99.90
12413;DHT22;13877;18.896;-99.222;2023-07-31T09:44:05;19.70;99.90
12413;DHT22;13877;18.896;-99.222;2023-07-31T09:46:32;19.70;99.90
12413;DHT22;13877;18.896;-99.222;2023-07-31T09:49:04;19.70;99.90
12413;DHT22;13877;18.896;-99.222;2023-07-31T09:51:31;19.70;99.90
12413;DHT22;13877;18.896;-99.222;2023-07-31T09:53:58;19.70;99.90
12413;DHT22;13877;18.896;-99.222;2023-07-31T09:56:24;19.70;99.90
12413;DHT22;13877;18.896;-99.222;2023-07-31T09:58:51;19.70;99.90
12413;DHT22;13877;18.896;-99.222;2023-07-31T10:01:19;19.70;99.90
12413;DHT22;13877;18.896;-99.222;2023-07-31T10:03:45;19.70;99.90
12413;DHT22;13877;18.896;-99.222;2023-07-31T10:06:11;19.90;99.90
12413;DHT22;13877;18.896;-99.222;2023-07-31T10:08:39;20.00;99.90
12413;DHT22;13877;18.896;-99.222;2023-07-31T10:11:06;20.00;99.90
12413;DHT22;13877;18.896;-99.222;2023-07-31T10:13:33;19.90;99.90
12413;DHT22;13877;18.896;-99.222;2023-07-31T10:16:00;19.90;99.90
12413;DHT22;13877;18.896;-99.222;2023-07-31T10:18:29;19.90;99.90
12413;DHT22;13877;18.896;-99.222;2023-07-31T10:20:56;19.80;99.90
12413;DHT22;13877;18.896;-99.222;2023-07-31T10:23:23;19.80;99.90
12413;DHT22;13877;18.896;-99.222;2023-07-31T10:25:51;19.70;99.90
12413;DHT22;13877;18.896;-99.222;2023-07-31T10:28:19;19.60;99.90
12413;DHT22;13877;18.896;-99.222;2023-07-31T10:30:45;19.60;99.90
12413;DHT22;13877;18.896;-99.222;2023-07-31T10:33:12;19.50;99.90
12413;DHT22;13877;18.896;-99.222;2023-07-31T10:35:38;19.40;99.90
12413;DHT22;13877;18.896;-99.222;2023-07-31T10:38:11;19.40;99.90
12413;DHT22;13877;18.896;-99.222;2023-07-31T10:40:38;19.30;99.90
12413;DHT22;13877;18.896;-99.222;2023-07-31T10:43:05;19.20;99.90
12413;DHT22;13877;18.896;-99.222;2023-07-31T10:45:35;19.10;99.90
12413;DHT22;13877;18.896;-99.222;2023-07-31T10:48:15;19.00;99.90
12413;DHT22;13877;18.896;-99.222;2023-07-31T10:50:48;19.00;99.90
12413;DHT22;13877;18.896;-99.222;2023-07-31T10:53:25;18.90;99.90
12413;DHT22;13877;18.896;-99.222;2023-07-31T10:55:51;18.80;99.90
12413;DHT22;13877;18.896;-99.222;2023-07-31T10:58:18;18.70;99.90
12413;DHT22;13877;18.896;-99.222;2023-07-31T11:00:46;18.60;99.90
12413;DHT22;13877;18.896;-99.222;2023-07-31T11:03:13;18.60;99.90
12413;DHT22;13877;18.896;-99.222;2023-07-31T11:05:44;18.60;99.90
12413;DHT22;13877;18.896;-99.222;2023-07-31T11:08:19;18.60;99.90
12413;DHT22;13877;18.896;-99.222;2023-07-31T11:10:46;18.50;99.90
12413;DHT22;13877;18.896;-99.222;2023-07-31T11:13:14;18.40;99.90
12413;DHT22;13877;18.896;-99.222;2023-07-31T11:15:40;18.50;99.90
12413;DHT22;13877;18.896;-99.222;2023-07-31T11:18:07;18.50;99.90
12413;DHT22;13877;18.896;-99.222;2023-07-31T11:20:34;18.40;99.90
12413;DHT22;13877;18.896;-99.222;2023-07-31T11:23:05;18.50;99.90
12413;DHT22;13877;18.896;-99.222;2023-07-31T11:25:32;18.50;99.90
12413;DHT22;13877;18.896;-99.222;2023-07-31T11:28:05;18.50;99.90
12413;DHT22;13877;18.896;-99.222;2023-07-31T11:30:32;18.30;99.90
12413;DHT22;13877;18.896;-99.222;2023-07-31T11:32:59;18.20;99.90
12413;DHT22;13877;18.896;-99.222;2023-07-31T11:35:25;18.20;99.90
12413;DHT22;13877;18.896;-99.222;2023-07-31T11:37:52;18.20;99.90
12413;DHT22;13877;18.896;-99.222;2023-07-31T11:40:18;18.20;99.90
12413;DHT22;13877;18.896;-99.222;2023-07-31T11:42:45;18.20;99.90
12413;DHT22;13877;18.896;-99.222;2023-07-31T11:45:12;18.10;99.90
12413;DHT22;13877;18.896;-99.222;2023-07-31T11:47:38;18.10;99.90
12413;DHT22;13877;18.896;-99.222;2023-07-31T11:50:05;18.20;99.90
12413;DHT22;13877;18.896;-99.222;2023-07-31T11:52:34;18.10;99.90
12413;DHT22;13877;18.896;-99.222;2023-07-31T11:55:02;18.20;99.90
12413;DHT22;13877;18.896;-99.222;2023-07-31T11:57:29;18.10;99.90
12413;DHT22;13877;18.896;-99.222;2023-07-31T11:59:56;18.10;99.90
12413;DHT22;13877;18.896;-99.222;2023-07-31T12:02:23;18.00;99.90
12413;DHT22;13877;18.896;-99.222;2023-07-31T12:04:50;17.90;99.90
12413;DHT22;13877;18.896;-99.222;2023-07-31T12:07:17;17.80;99.90
12413;DHT22;13877;18.896;-99.222;2023-07-31T12:09:55;17.80;99.90
12413;DHT22;13877;18.896;-99.222;2023-07-31T12:12:22;17.60;99.90
12413;DHT22;13877;18.896;-99.222;2023-07-31T12:14:49;17.50;99.90
12413;DHT22;13877;18.896;-99.222;2023-07-31T12:17:17;17.40;99.90
12413;DHT22;13877;18.896;-99.222;2023-07-31T12:19:45;17.40;99.90
12413;DHT22;13877;18.896;-99.222;2023-07-31T12:22:14;17.50;99.90
12413;DHT22;13877;18.896;-99.222;2023-07-31T12:24:44;17.50;99.90
12413;DHT22;13877;18.896;-99.222;2023-07-31T12:27:11;17.60;99.90
12413;DHT22;13877;18.896;-99.222;2023-07-31T12:29:38;17.70;99.90
12413;DHT22;13877;18.896;-99.222;2023-07-31T12:32:18;18.00;99.90
12413;DHT22;13877;18.896;-99.222;2023-07-31T12:34:45;18.30;99.90
12413;DHT22;13877;18.896;-99.222;2023-07-31T12:37:11;18.40;99.90
12413;DHT22;13877;18.896;-99.222;2023-07-31T12:39:38;18.60;99.90
12413;DHT22;13877;18.896;-99.222;2023-07-31T12:42:04;18.70;99.90
12413;DHT22;13877;18.896;-99.222;2023-07-31T12:44:31;19.00;99.90
12413;DHT22;13877;18.896;-99.222;2023-07-31T12:46:57;19.20;99.90
12413;DHT22;13877;18.896;-99.222;2023-07-31T12:49:24;19.40;99.90
12413;DHT22;13877;18.896;-99.222;2023-07-31T12:51:50;19.40;99.90
12413;DHT22;13877;18.896;-99.222;2023-07-31T12:54:17;19.50;99.90
12413;DHT22;13877;18.896;-99.222;2023-07-31T12:56:43;19.40;99.90
12413;DHT22;13877;18.896;-99.222;2023-07-31T12:59:10;19.30;99.90
12413;DHT22;13877;18.896;-99.222;2023-07-31T13:01:37;19.10;99.90
12413;DHT22;13877;18.896;-99.222;2023-07-31T13:04:03;19.00;99.90
12413;DHT22;13877;18.896;-99.222;2023-07-31T13:06:30;19.00;99.90
12413;DHT22;13877;18.896;-99.222;2023-07-31T13:08:56;19.20;99.90
12413;DHT22;13877;18.896;-99.222;2023-07-31T13:11:23;19.20;99.90
12413;DHT22;13877;18.896;-99.222;2023-07-31T13:13:49;19.30;99.90
12413;DHT22;13877;18.896;-99.222;2023-07-31T13:16:16;19.30;99.90
12413;DHT22;13877;18.896;-99.222;2023-07-31T13:18:42;19.70;99.90
12413;DHT22;13877;18.896;-99.222;2023-07-31T13:21:08;20.10;99.90
12413;DHT22;13877;18.896;-99.222;2023-07-31T13:23:35;20.40;99.90
12413;DHT22;13877;18.896;-99.222;2023-07-31T13:26:01;20.80;99.90
12413;DHT22;13877;18.896;-99.222;2023-07-31T13:28:28;21.10;99.90
12413;DHT22;13877;18.896;-99.222;2023-07-31T13:30:54;21.30;99.90
12413;DHT22;13877;18.896;-99.222;2023-07-31T13:33:21;21.60;99.90
12413;DHT22;13877;18.896;-99.222;2023-07-31T13:35:47;21.90;99.90
12413;DHT22;13877;18.896;-99.222;2023-07-31T13:38:14;22.10;99.50
12413;DHT22;13877;18.896;-99.222;2023-07-31T13:40:41;22.30;98.80
12413;DHT22;13877;18.896;-99.222;2023-07-31T13:43:07;22.50;98.40
12413;DHT22;13877;18.896;-99.222;2023-07-31T13:45:33;22.60;98.20
12413;DHT22;13877;18.896;-99.222;2023-07-31T13:48:01;22.80;98.20
12413;DHT22;13877;18.896;-99.222;2023-07-31T13:50:27;22.70;98.20
12413;DHT22;13877;18.896;-99.222;2023-07-31T13:52:54;23.00;97.80
12413;DHT22;13877;18.896;-99.222;2023-07-31T13:55:20;23.20;97.70
12413;DHT22;13877;18.896;-99.222;2023-07-31T13:57:47;23.20;97.00
12413;DHT22;13877;18.896;-99.222;2023-07-31T14:00:14;23.30;97.00
12413;DHT22;13877;18.896;-99.222;2023-07-31T14:02:41;23.60;95.40
12413;DHT22;13877;18.896;-99.222;2023-07-31T14:05:07;23.70;95.40
12413;DHT22;13877;18.896;-99.222;2023-07-31T14:07:35;23.90;94.70
12413;DHT22;13877;18.896;-99.222;2023-07-31T14:10:01;24.00;94.90
12413;DHT22;13877;18.896;-99.222;2023-07-31T14:12:30;24.20;95.00
12413;DHT22;13877;18.896;-99.222;2023-07-31T14:14:56;24.20;94.30
12413;DHT22;13877;18.896;-99.222;2023-07-31T14:17:23;24.20;94.50
12413;DHT22;13877;18.896;-99.222;2023-07-31T14:19:49;24.40;94.80
12413;DHT22;13877;18.896;-99.222;2023-07-31T14:22:26;24.50;93.60
12413;DHT22;13877;18.896;-99.222;2023-07-31T14:24:53;24.60;93.80
12413;DHT22;13877;18.896;-99.222;2023-07-31T14:27:19;24.60;94.30
12413;DHT22;13877;18.896;-99.222;2023-07-31T14:29:46;24.70;94.40
12413;DHT22;13877;18.896;-99.222;2023-07-31T14:32:12;24.80;93.30
12413;DHT22;13877;18.896;-99.222;2023-07-31T14:34:39;24.80;93.70
12413;DHT22;13877;18.896;-99.222;2023-07-31T14:37:05;24.90;93.80
12413;DHT22;13877;18.896;-99.222;2023-07-31T14:39:31;24.80;94.00
12413;DHT22;13877;18.896;-99.222;2023-07-31T14:41:58;25.00;94.20
12413;DHT22;13877;18.896;-99.222;2023-07-31T14:44:24;25.00;93.60
12413;DHT22;13877;18.896;-99.222;2023-07-31T14:46:51;25.00;94.30
12413;DHT22;13877;18.896;-99.222;2023-07-31T14:49:17;25.20;93.80
12413;DHT22;13877;18.896;-99.222;2023-07-31T14:51:43;25.30;93.50
12413;DHT22;13877;18.896;-99.222;2023-07-31T14:54:10;25.40;93.00
12413;DHT22;13877;18.896;-99.222;2023-07-31T14:56:36;25.20;93.30
12413;DHT22;13877;18.896;-99.222;2023-07-31T14:59:03;25.20;93.70
12413;DHT22;13877;18.896;-99.222;2023-07-31T15:01:29;25.30;93.50
12413;DHT22;13877;18.896;-99.222;2023-07-31T15:03:56;25.40;93.60
12413;DHT22;13877;18.896;-99.222;2023-07-31T15:06:22;25.60;93.50